sensor_id;sensor_type;location;lat;lon;timestamp;P1;durP1;ratioP1;P2;durP2;ratioP2
3922;SDS011;1976;51.694;6.256;2022-08-19T00:00:23;9.43;;;8.40;;
3922;SDS011;1976;51.694;6.256;2022-08-19T00:02:49;11.80;;;9.77;;
3922;SDS011;1976;51.694;6.256;2022-08-19T00:05:15;16.50;;;10.60;;
3922;SDS011;1976;51.694;6.256;2022-08-19T00:07:42;21.13;;;13.70;;
3922;SDS011;1976;51.694;6.256;2022-08-19T00:10:08;19.67;;;14.10;;
3922;SDS011;1976;51.694;6.256;2022-08-19T00:12:36;17.50;;;13.27;;
3922;SDS011;1976;51.694;6.256;2022-08-19T00:15:03;22.10;;;14.57;;
3922;SDS011;1976;51.694;6.256;2022-08-19T00:17:31;19.30;;;12.77;;
3922;SDS011;1976;51.694;6.256;2022-08-19T00:19:57;16.70;;;13.17;;
3922;SDS011;1976;51.694;6.256;2022-08-19T00:22:22;15.17;;;9.80;;
3922;SDS011;1976;51.694;6.256;2022-08-19T00:24:48;12.47;;;9.97;;
3922;SDS011;1976;51.694;6.256;2022-08-19T00:27:14;22.20;;;10.10;;
3922;SDS011;1976;51.694;6.256;2022-08-19T00:29:41;20.63;;;13.53;;
3922;SDS011;1976;51.694;6.256;2022-08-19T00:32:06;19.60;;;15.00;;
3922;SDS011;1976;51.694;6.256;2022-08-19T00:34:32;20.70;;;15.03;;
3922;SDS011;1976;51.694;6.256;2022-08-19T00:36:58;23.17;;;16.10;;
3922;SDS011;1976;51.694;6.256;2022-08-19T00:39:24;19.80;;;13.40;;
3922;SDS011;1976;51.694;6.256;2022-08-19T00:41:50;14.40;;;11.33;;
3922;SDS011;1976;51.694;6.256;2022-08-19T00:44:18;24.13;;;16.53;;
3922;SDS011;1976;51.694;6.256;2022-08-19T00:46:46;21.30;;;16.90;;
3922;SDS011;1976;51.694;6.256;2022-08-19T00:49:15;24.73;;;17.97;;
3922;SDS011;1976;51.694;6.256;2022-08-19T00:51:45;23.67;;;17.57;;
3922;SDS011;1976;51.694;6.256;2022-08-19T00:54:13;24.80;;;19.07;;
3922;SDS011;1976;51.694;6.256;2022-08-19T00:56:40;25.27;;;18.83;;
3922;SDS011;1976;51.694;6.256;2022-08-19T00:59:07;24.23;;;18.53;;
3922;SDS011;1976;51.694;6.256;2022-08-19T01:01:35;24.13;;;18.60;;
3922;SDS011;1976;51.694;6.256;2022-08-19T01:04:02;26.03;;;19.63;;
3922;SDS011;1976;51.694;6.256;2022-08-19T01:06:28;23.23;;;18.63;;
3922;SDS011;1976;51.694;6.256;2022-08-19T01:08:57;23.50;;;17.73;;
3922;SDS011;1976;51.694;6.256;2022-08-19T01:11:24;24.87;;;17.00;;
3922;SDS011;1976;51.694;6.256;2022-08-19T01:13:51;32.87;;;18.40;;
3922;SDS011;1976;51.694;6.256;2022-08-19T01:16:19;25.00;;;16.33;;
3922;SDS011;1976;51.694;6.256;2022-08-19T01:18:48;25.10;;;16.53;;
3922;SDS011;1976;51.694;6.256;2022-08-19T01:21:30;32.87;;;16.87;;
3922;SDS011;1976;51.694;6.256;2022-08-19T01:23:59;30.00;;;17.40;;
3922;SDS011;1976;51.694;6.256;2022-08-19T01:26:25;35.50;;;17.80;;
3922;SDS011;1976;51.694;6.256;2022-08-19T01:28:52;27.10;;;17.30;;
3922;SDS011;1976;51.694;6.256;2022-08-19T01:31:22;30.50;;;16.57;;
3922;SDS011;1976;51.694;6.256;2022-08-19T01:33:51;20.57;;;15.77;;
3922;SDS011;1976;51.694;6.256;2022-08-19T01:36:24;27.20;;;16.53;;
3922;SDS011;1976;51.694;6.256;2022-08-19T01:38:53;34.00;;;17.80;;
3922;SDS011;1976;51.694;6.256;2022-08-19T01:41:19;26.80;;;16.63;;
3922;SDS011;1976;51.694;6.256;2022-08-19T01:43:45;25.10;;;17.90;;
3922;SDS011;1976;51.694;6.256;2022-08-19T01:46:11;21.23;;;15.90;;
3922;SDS011;1976;51.694;6.256;2022-08-19T01:48:39;21.97;;;16.60;;
3922;SDS011;1976;51.694;6.256;2022-08-19T01:51:07;25.30;;;17.70;;
3922;SDS011;1976;51.694;6.256;2022-08-19T01:53:34;27.93;;;18.00;;
3922;SDS011;1976;51.694;6.256;2022-08-19T01:56:00;29.53;;;18.67;;
3922;SDS011;1976;51.694;6.256;2022-08-19T01:58:40;19.23;;;16.33;;
3922;SDS011;1976;51.694;6.256;2022-08-19T02:01:11;28.27;;;18.80;;
3922;SDS011;1976;51.694;6.256;2022-08-19T02:03:38;24.97;;;17.80;;
3922;SDS011;1976;51.694;6.256;2022-08-19T02:06:04;22.57;;;16.70;;
3922;SDS011;1976;51.694;6.256;2022-08-19T02:08:31;24.20;;;18.97;;
3922;SDS011;1976;51.694;6.256;2022-08-19T02:10:58;29.23;;;17.80;;
3922;SDS011;1976;51.694;6.256;2022-08-19T02:13:24;28.73;;;19.03;;
3922;SDS011;1976;51.694;6.256;2022-08-19T02:15:51;22.90;;;17.30;;
3922;SDS011;1976;51.694;6.256;2022-08-19T02:18:17;29.43;;;21.03;;
3922;SDS011;1976;51.694;6.256;2022-08-19T02:20:43;30.07;;;17.93;;
3922;SDS011;1976;51.694;6.256;2022-08-19T02:23:10;26.00;;;18.50;;
3922;SDS011;1976;51.694;6.256;2022-08-19T02:25:37;31.57;;;18.57;;
3922;SDS011;1976;51.694;6.256;2022-08-19T02:28:03;24.30;;;17.90;;
3922;SDS011;1976;51.694;6.256;2022-08-19T02:30:29;22.97;;;17.30;;
3922;SDS011;1976;51.694;6.256;2022-08-19T02:32:55;25.40;;;18.17;;
3922;SDS011;1976;51.694;6.256;2022-08-19T02:35:21;25.37;;;16.43;;
3922;SDS011;1976;51.694;6.256;2022-08-19T02:37:47;24.30;;;15.97;;
3922;SDS011;1976;51.694;6.256;2022-08-19T02:40:32;28.07;;;16.43;;
3922;SDS011;1976;51.694;6.256;2022-08-19T02:43:05;31.50;;;14.27;;
3922;SDS011;1976;51.694;6.256;2022-08-19T02:45:36;27.43;;;14.23;;
3922;SDS011;1976;51.694;6.256;2022-08-19T02:48:03;26.63;;;15.03;;
3922;SDS011;1976;51.694;6.256;2022-08-19T02:50:30;25.03;;;16.00;;
3922;SDS011;1976;51.694;6.256;2022-08-19T02:52:56;25.83;;;17.20;;
3922;SDS011;1976;51.694;6.256;2022-08-19T02:55:22;34.20;;;20.00;;
3922;SDS011;1976;51.694;6.256;2022-08-19T02:57:48;31.27;;;17.10;;
3922;SDS011;1976;51.694;6.256;2022-08-19T03:00:14;26.10;;;18.77;;
3922;SDS011;1976;51.694;6.256;2022-08-19T03:02:40;22.83;;;16.07;;
3922;SDS011;1976;51.694;6.256;2022-08-19T03:05:06;25.93;;;17.17;;
3922;SDS011;1976;51.694;6.256;2022-08-19T03:07:34;20.53;;;15.87;;
3922;SDS011;1976;51.694;6.256;2022-08-19T03:10:01;21.50;;;15.70;;
3922;SDS011;1976;51.694;6.256;2022-08-19T03:12:27;28.00;;;15.27;;
3922;SDS011;1976;51.694;6.256;2022-08-19T03:14:54;21.43;;;17.00;;
3922;SDS011;1976;51.694;6.256;2022-08-19T03:17:20;22.27;;;16.07;;
3922;SDS011;1976;51.694;6.256;2022-08-19T03:19:45;25.03;;;16.90;;
3922;SDS011;1976;51.694;6.256;2022-08-19T03:22:11;21.00;;;15.87;;
3922;SDS011;1976;51.694;6.256;2022-08-19T03:24:37;27.20;;;16.37;;
3922;SDS011;1976;51.694;6.256;2022-08-19T03:27:03;30.00;;;16.07;;
3922;SDS011;1976;51.694;6.256;2022-08-19T03:29:30;29.83;;;15.80;;
3922;SDS011;1976;51.694;6.256;2022-08-19T03:31:57;22.53;;;15.87;;
3922;SDS011;1976;51.694;6.256;2022-08-19T03:34:26;28.07;;;16.10;;
3922;SDS011;1976;51.694;6.256;2022-08-19T03:36:54;28.67;;;17.83;;
3922;SDS011;1976;51.694;6.256;2022-08-19T03:39:22;18.80;;;14.63;;
3922;SDS011;1976;51.694;6.256;2022-08-19T03:41:49;17.87;;;12.20;;
3922;SDS011;1976;51.694;6.256;2022-08-19T03:44:18;9.50;;;8.50;;
3922;SDS011;1976;51.694;6.256;2022-08-19T03:46:47;11.97;;;9.23;;
3922;SDS011;1976;51.694;6.256;2022-08-19T03:49:15;17.40;;;11.60;;
3922;SDS011;1976;51.694;6.256;2022-08-19T03:51:41;17.63;;;11.20;;
3922;SDS011;1976;51.694;6.256;2022-08-19T03:54:09;17.10;;;10.30;;
3922;SDS011;1976;51.694;6.256;2022-08-19T03:56:38;12.60;;;8.93;;
3922;SDS011;1976;51.694;6.256;2022-08-19T03:59:05;15.13;;;11.57;;
3922;SDS011;1976;51.694;6.256;2022-08-19T04:01:32;16.20;;;12.00;;
3922;SDS011;1976;51.694;6.256;2022-08-19T04:04:00;117.07;;;12.20;;
3922;SDS011;1976;51.694;6.256;2022-08-19T04:06:27;12.47;;;9.30;;
3922;SDS011;1976;51.694;6.256;2022-08-19T04:08:55;26.63;;;8.23;;
3922;SDS011;1976;51.694;6.256;2022-08-19T04:11:24;95.33;;;10.30;;
3922;SDS011;1976;51.694;6.256;2022-08-19T04:13:52;83.63;;;12.83;;
3922;SDS011;1976;51.694;6.256;2022-08-19T04:16:19;52.03;;;12.77;;
3922;SDS011;1976;51.694;6.256;2022-08-19T04:18:47;35.07;;;12.40;;
3922;SDS011;1976;51.694;6.256;2022-08-19T04:21:24;225.17;;;13.97;;
3922;SDS011;1976;51.694;6.256;2022-08-19T04:23:51;115.47;;;11.93;;
3922;SDS011;1976;51.694;6.256;2022-08-19T04:26:19;57.30;;;10.40;;
3922;SDS011;1976;51.694;6.256;2022-08-19T04:28:47;48.27;;;10.03;;
3922;SDS011;1976;51.694;6.256;2022-08-19T04:31:18;93.07;;;10.50;;
3922;SDS011;1976;51.694;6.256;2022-08-19T04:33:45;14.03;;;10.50;;
3922;SDS011;1976;51.694;6.256;2022-08-19T04:36:18;13.47;;;11.50;;
3922;SDS011;1976;51.694;6.256;2022-08-19T04:38:49;14.70;;;12.23;;
3922;SDS011;1976;51.694;6.256;2022-08-19T04:41:17;15.70;;;12.33;;
3922;SDS011;1976;51.694;6.256;2022-08-19T04:44:02;13.83;;;11.53;;
3922;SDS011;1976;51.694;6.256;2022-08-19T04:46:28;15.27;;;13.63;;
3922;SDS011;1976;51.694;6.256;2022-08-19T04:48:57;13.90;;;12.40;;
3922;SDS011;1976;51.694;6.256;2022-08-19T04:51:24;11.47;;;10.23;;
3922;SDS011;1976;51.694;6.256;2022-08-19T04:53:50;11.27;;;10.07;;
3922;SDS011;1976;51.694;6.256;2022-08-19T04:56:17;14.77;;;10.37;;
3922;SDS011;1976;51.694;6.256;2022-08-19T04:58:45;15.77;;;12.20;;
3922;SDS011;1976;51.694;6.256;2022-08-19T05:01:17;18.20;;;14.07;;
3922;SDS011;1976;51.694;6.256;2022-08-19T05:03:44;24.20;;;17.00;;
3922;SDS011;1976;51.694;6.256;2022-08-19T05:06:10;28.03;;;20.30;;
3922;SDS011;1976;51.694;6.256;2022-08-19T05:08:39;21.40;;;17.50;;
3922;SDS011;1976;51.694;6.256;2022-08-19T05:11:15;21.60;;;17.60;;
3922;SDS011;1976;51.694;6.256;2022-08-19T05:13:45;22.43;;;13.73;;
3922;SDS011;1976;51.694;6.256;2022-08-19T05:16:12;23.63;;;17.37;;
3922;SDS011;1976;51.694;6.256;2022-08-19T05:18:39;23.27;;;17.90;;
3922;SDS011;1976;51.694;6.256;2022-08-19T05:21:23;22.20;;;18.80;;
3922;SDS011;1976;51.694;6.256;2022-08-19T05:24:08;23.97;;;17.60;;
3922;SDS011;1976;51.694;6.256;2022-08-19T05:26:37;29.00;;;18.00;;
3922;SDS011;1976;51.694;6.256;2022-08-19T05:29:04;23.07;;;17.37;;
3922;SDS011;1976;51.694;6.256;2022-08-19T05:31:30;23.53;;;16.73;;
3922;SDS011;1976;51.694;6.256;2022-08-19T05:33:56;22.33;;;17.00;;
3922;SDS011;1976;51.694;6.256;2022-08-19T05:36:24;27.83;;;16.93;;
3922;SDS011;1976;51.694;6.256;2022-08-19T05:38:50;37.70;;;18.47;;
3922;SDS011;1976;51.694;6.256;2022-08-19T05:41:18;55.20;;;17.00;;
3922;SDS011;1976;51.694;6.256;2022-08-19T05:43:44;115.70;;;21.20;;
3922;SDS011;1976;51.694;6.256;2022-08-19T05:46:13;109.87;;;17.93;;
3922;SDS011;1976;51.694;6.256;2022-08-19T05:48:43;37.33;;;17.73;;
3922;SDS011;1976;51.694;6.256;2022-08-19T05:51:08;166.30;;;19.07;;
3922;SDS011;1976;51.694;6.256;2022-08-19T05:53:34;37.90;;;19.10;;
3922;SDS011;1976;51.694;6.256;2022-08-19T05:56:04;32.13;;;18.50;;
3922;SDS011;1976;51.694;6.256;2022-08-19T05:58:31;25.93;;;19.77;;
3922;SDS011;1976;51.694;6.256;2022-08-19T06:00:58;30.27;;;20.90;;
3922;SDS011;1976;51.694;6.256;2022-08-19T06:03:29;33.47;;;21.57;;
3922;SDS011;1976;51.694;6.256;2022-08-19T06:05:55;36.57;;;24.57;;
3922;SDS011;1976;51.694;6.256;2022-08-19T06:08:23;41.33;;;27.60;;
3922;SDS011;1976;51.694;6.256;2022-08-19T06:10:49;42.17;;;26.50;;
3922;SDS011;1976;51.694;6.256;2022-08-19T06:13:14;38.87;;;26.10;;
3922;SDS011;1976;51.694;6.256;2022-08-19T06:15:40;41.90;;;26.43;;
3922;SDS011;1976;51.694;6.256;2022-08-19T06:18:08;44.73;;;30.30;;
3922;SDS011;1976;51.694;6.256;2022-08-19T06:20:34;53.00;;;29.90;;
3922;SDS011;1976;51.694;6.256;2022-08-19T06:23:00;43.27;;;27.17;;
3922;SDS011;1976;51.694;6.256;2022-08-19T06:25:25;45.00;;;28.10;;
3922;SDS011;1976;51.694;6.256;2022-08-19T06:27:51;47.67;;;30.23;;
3922;SDS011;1976;51.694;6.256;2022-08-19T06:30:17;50.47;;;29.60;;
3922;SDS011;1976;51.694;6.256;2022-08-19T06:32:43;50.13;;;31.40;;
3922;SDS011;1976;51.694;6.256;2022-08-19T06:35:09;46.63;;;32.13;;
3922;SDS011;1976;51.694;6.256;2022-08-19T06:37:36;54.90;;;34.90;;
3922;SDS011;1976;51.694;6.256;2022-08-19T06:40:02;59.63;;;34.80;;
3922;SDS011;1976;51.694;6.256;2022-08-19T06:42:28;57.17;;;33.63;;
3922;SDS011;1976;51.694;6.256;2022-08-19T06:44:55;51.37;;;34.60;;
3922;SDS011;1976;51.694;6.256;2022-08-19T06:47:21;53.53;;;32.53;;
3922;SDS011;1976;51.694;6.256;2022-08-19T06:49:47;49.57;;;33.43;;
3922;SDS011;1976;51.694;6.256;2022-08-19T06:52:13;52.93;;;33.23;;
3922;SDS011;1976;51.694;6.256;2022-08-19T06:54:39;43.73;;;27.73;;
3922;SDS011;1976;51.694;6.256;2022-08-19T06:57:06;49.73;;;31.63;;
3922;SDS011;1976;51.694;6.256;2022-08-19T06:59:34;56.10;;;33.33;;
3922;SDS011;1976;51.694;6.256;2022-08-19T07:02:03;52.30;;;33.10;;
3922;SDS011;1976;51.694;6.256;2022-08-19T07:04:33;52.53;;;32.23;;
3922;SDS011;1976;51.694;6.256;2022-08-19T07:07:11;52.53;;;30.63;;
3922;SDS011;1976;51.694;6.256;2022-08-19T07:09:39;54.80;;;32.20;;
3922;SDS011;1976;51.694;6.256;2022-08-19T07:12:08;59.23;;;34.30;;
3922;SDS011;1976;51.694;6.256;2022-08-19T07:14:35;61.43;;;34.30;;
3922;SDS011;1976;51.694;6.256;2022-08-19T07:17:03;66.97;;;35.80;;
3922;SDS011;1976;51.694;6.256;2022-08-19T07:19:31;61.27;;;33.93;;
3922;SDS011;1976;51.694;6.256;2022-08-19T07:21:58;70.40;;;35.80;;
3922;SDS011;1976;51.694;6.256;2022-08-19T07:24:26;67.27;;;35.63;;
3922;SDS011;1976;51.694;6.256;2022-08-19T07:26:54;64.37;;;35.10;;
3922;SDS011;1976;51.694;6.256;2022-08-19T07:29:22;65.83;;;35.87;;
3922;SDS011;1976;51.694;6.256;2022-08-19T07:31:52;69.53;;;36.00;;
3922;SDS011;1976;51.694;6.256;2022-08-19T07:34:21;65.70;;;35.03;;
3922;SDS011;1976;51.694;6.256;2022-08-19T07:36:49;65.80;;;35.93;;
3922;SDS011;1976;51.694;6.256;2022-08-19T07:39:19;79.17;;;37.80;;
3922;SDS011;1976;51.694;6.256;2022-08-19T07:41:48;69.43;;;36.47;;
3922;SDS011;1976;51.694;6.256;2022-08-19T07:44:15;70.60;;;35.83;;
3922;SDS011;1976;51.694;6.256;2022-08-19T07:46:44;70.70;;;36.40;;
3922;SDS011;1976;51.694;6.256;2022-08-19T07:49:12;78.20;;;40.30;;
3922;SDS011;1976;51.694;6.256;2022-08-19T07:51:45;63.03;;;32.77;;
3922;SDS011;1976;51.694;6.256;2022-08-19T07:54:15;70.27;;;38.00;;
3922;SDS011;1976;51.694;6.256;2022-08-19T07:56:42;74.33;;;38.93;;
3922;SDS011;1976;51.694;6.256;2022-08-19T07:59:07;69.37;;;37.57;;
3922;SDS011;1976;51.694;6.256;2022-08-19T08:01:34;60.57;;;33.37;;
3922;SDS011;1976;51.694;6.256;2022-08-19T08:04:00;64.53;;;34.77;;
3922;SDS011;1976;51.694;6.256;2022-08-19T08:06:45;59.57;;;34.60;;
3922;SDS011;1976;51.694;6.256;2022-08-19T08:09:31;72.67;;;35.83;;
3922;SDS011;1976;51.694;6.256;2022-08-19T08:12:03;62.77;;;37.60;;
3922;SDS011;1976;51.694;6.256;2022-08-19T08:14:50;72.03;;;38.00;;
3922;SDS011;1976;51.694;6.256;2022-08-19T08:17:20;68.97;;;39.40;;
3922;SDS011;1976;51.694;6.256;2022-08-19T08:19:48;69.83;;;38.30;;
3922;SDS011;1976;51.694;6.256;2022-08-19T08:22:16;65.63;;;37.03;;
3922;SDS011;1976;51.694;6.256;2022-08-19T08:25:12;64.40;;;35.27;;
3922;SDS011;1976;51.694;6.256;2022-08-19T08:27:41;56.10;;;31.57;;
3922;SDS011;1976;51.694;6.256;2022-08-19T08:30:10;56.70;;;32.97;;
3922;SDS011;1976;51.694;6.256;2022-08-19T08:32:37;55.80;;;33.47;;
3922;SDS011;1976;51.694;6.256;2022-08-19T08:35:05;53.63;;;30.13;;
3922;SDS011;1976;51.694;6.256;2022-08-19T08:37:32;51.17;;;31.27;;
3922;SDS011;1976;51.694;6.256;2022-08-19T08:39:58;53.00;;;31.60;;
3922;SDS011;1976;51.694;6.256;2022-08-19T08:42:34;51.73;;;33.37;;
3922;SDS011;1976;51.694;6.256;2022-08-19T08:45:10;55.00;;;32.97;;
3922;SDS011;1976;51.694;6.256;2022-08-19T08:47:41;45.37;;;26.53;;
3922;SDS011;1976;51.694;6.256;2022-08-19T08:50:16;45.43;;;26.87;;
3922;SDS011;1976;51.694;6.256;2022-08-19T08:52:46;39.23;;;22.93;;
3922;SDS011;1976;51.694;6.256;2022-08-19T08:55:17;41.10;;;21.70;;
3922;SDS011;1976;51.694;6.256;2022-08-19T09:00:21;36.23;;;16.40;;
3922;SDS011;1976;51.694;6.256;2022-08-19T09:02:50;35.40;;;17.13;;
3922;SDS011;1976;51.694;6.256;2022-08-19T09:05:15;37.37;;;23.07;;
3922;SDS011;1976;51.694;6.256;2022-08-19T09:08:08;39.77;;;24.90;;
3922;SDS011;1976;51.694;6.256;2022-08-19T09:10:37;35.50;;;21.50;;
3922;SDS011;1976;51.694;6.256;2022-08-19T09:13:08;28.10;;;19.40;;
3922;SDS011;1976;51.694;6.256;2022-08-19T09:15:44;27.80;;;17.47;;
3922;SDS011;1976;51.694;6.256;2022-08-19T09:18:14;31.43;;;17.90;;
3922;SDS011;1976;51.694;6.256;2022-08-19T09:20:41;24.43;;;17.30;;
3922;SDS011;1976;51.694;6.256;2022-08-19T09:23:07;38.80;;;18.03;;
3922;SDS011;1976;51.694;6.256;2022-08-19T09:25:34;26.60;;;18.40;;
3922;SDS011;1976;51.694;6.256;2022-08-19T09:28:00;23.53;;;15.67;;
3922;SDS011;1976;51.694;6.256;2022-08-19T09:30:33;25.40;;;13.93;;
3922;SDS011;1976;51.694;6.256;2022-08-19T09:33:04;17.07;;;11.83;;
3922;SDS011;1976;51.694;6.256;2022-08-19T09:35:30;20.90;;;12.90;;
3922;SDS011;1976;51.694;6.256;2022-08-19T09:37:56;19.67;;;10.90;;
3922;SDS011;1976;51.694;6.256;2022-08-19T09:40:23;16.77;;;10.50;;
3922;SDS011;1976;51.694;6.256;2022-08-19T09:42:50;12.73;;;9.70;;
3922;SDS011;1976;51.694;6.256;2022-08-19T09:45:18;12.80;;;8.83;;
3922;SDS011;1976;51.694;6.256;2022-08-19T09:47:51;10.20;;;7.33;;
3922;SDS011;1976;51.694;6.256;2022-08-19T09:50:18;10.20;;;7.10;;
3922;SDS011;1976;51.694;6.256;2022-08-19T09:52:44;39.00;;;11.23;;
3922;SDS011;1976;51.694;6.256;2022-08-19T09:55:10;16.50;;;10.80;;
3922;SDS011;1976;51.694;6.256;2022-08-19T09:57:36;16.53;;;10.13;;
3922;SDS011;1976;51.694;6.256;2022-08-19T10:00:03;12.90;;;9.40;;
3922;SDS011;1976;51.694;6.256;2022-08-19T10:02:30;16.03;;;10.20;;
3922;SDS011;1976;51.694;6.256;2022-08-19T10:04:55;13.07;;;9.00;;
3922;SDS011;1976;51.694;6.256;2022-08-19T10:07:40;16.07;;;8.00;;
3922;SDS011;1976;51.694;6.256;2022-08-19T10:10:06;10.67;;;7.70;;
3922;SDS011;1976;51.694;6.256;2022-08-19T10:12:34;14.33;;;8.37;;
3922;SDS011;1976;51.694;6.256;2022-08-19T10:15:00;11.67;;;7.70;;
3922;SDS011;1976;51.694;6.256;2022-08-19T10:17:26;13.03;;;9.07;;
3922;SDS011;1976;51.694;6.256;2022-08-19T10:19:52;12.30;;;9.30;;
3922;SDS011;1976;51.694;6.256;2022-08-19T10:22:18;13.30;;;7.00;;
3922;SDS011;1976;51.694;6.256;2022-08-19T10:24:47;11.37;;;8.60;;
3922;SDS011;1976;51.694;6.256;2022-08-19T10:27:12;10.70;;;8.97;;
3922;SDS011;1976;51.694;6.256;2022-08-19T10:29:39;18.50;;;7.30;;
3922;SDS011;1976;51.694;6.256;2022-08-19T10:32:05;11.83;;;7.73;;
3922;SDS011;1976;51.694;6.256;2022-08-19T10:34:33;8.50;;;5.80;;
3922;SDS011;1976;51.694;6.256;2022-08-19T10:37:01;13.80;;;7.30;;
3922;SDS011;1976;51.694;6.256;2022-08-19T10:39:32;17.43;;;8.17;;
3922;SDS011;1976;51.694;6.256;2022-08-19T10:41:58;12.10;;;7.70;;
3922;SDS011;1976;51.694;6.256;2022-08-19T10:44:28;12.03;;;7.10;;
3922;SDS011;1976;51.694;6.256;2022-08-19T10:46:55;10.50;;;8.20;;
3922;SDS011;1976;51.694;6.256;2022-08-19T10:49:20;12.57;;;7.00;;
3922;SDS011;1976;51.694;6.256;2022-08-19T10:51:47;12.10;;;6.50;;
3922;SDS011;1976;51.694;6.256;2022-08-19T10:54:32;8.47;;;6.77;;
3922;SDS011;1976;51.694;6.256;2022-08-19T10:57:17;8.00;;;6.03;;
3922;SDS011;1976;51.694;6.256;2022-08-19T10:59:42;7.30;;;5.87;;
3922;SDS011;1976;51.694;6.256;2022-08-19T11:02:09;18.00;;;7.27;;
3922;SDS011;1976;51.694;6.256;2022-08-19T11:04:37;8.67;;;5.43;;
3922;SDS011;1976;51.694;6.256;2022-08-19T11:07:04;10.17;;;6.43;;
3922;SDS011;1976;51.694;6.256;2022-08-19T11:09:31;11.73;;;5.87;;
3922;SDS011;1976;51.694;6.256;2022-08-19T11:12:01;6.80;;;5.27;;
3922;SDS011;1976;51.694;6.256;2022-08-19T11:14:28;7.90;;;5.70;;
3922;SDS011;1976;51.694;6.256;2022-08-19T11:16:55;13.77;;;7.63;;
3922;SDS011;1976;51.694;6.256;2022-08-19T11:19:22;14.00;;;11.43;;
3922;SDS011;1976;51.694;6.256;2022-08-19T11:21:49;23.13;;;11.93;;
3922;SDS011;1976;51.694;6.256;2022-08-19T11:24:23;18.63;;;10.43;;
3922;SDS011;1976;51.694;6.256;2022-08-19T11:26:51;14.47;;;11.03;;
3922;SDS011;1976;51.694;6.256;2022-08-19T11:29:22;17.50;;;10.40;;
3922;SDS011;1976;51.694;6.256;2022-08-19T11:31:52;16.37;;;11.77;;
3922;SDS011;1976;51.694;6.256;2022-08-19T11:34:21;21.50;;;12.00;;
3922;SDS011;1976;51.694;6.256;2022-08-19T11:36:49;21.83;;;13.03;;
3922;SDS011;1976;51.694;6.256;2022-08-19T11:39:17;17.50;;;12.33;;
3922;SDS011;1976;51.694;6.256;2022-08-19T11:41:45;26.03;;;13.30;;
3922;SDS011;1976;51.694;6.256;2022-08-19T11:44:10;21.10;;;12.93;;
3922;SDS011;1976;51.694;6.256;2022-08-19T11:46:39;17.00;;;13.00;;
3922;SDS011;1976;51.694;6.256;2022-08-19T11:49:06;12.60;;;11.20;;
3922;SDS011;1976;51.694;6.256;2022-08-19T11:51:34;15.57;;;11.30;;
3922;SDS011;1976;51.694;6.256;2022-08-19T11:54:00;16.70;;;13.27;;
3922;SDS011;1976;51.694;6.256;2022-08-19T11:56:26;14.07;;;10.67;;
3922;SDS011;1976;51.694;6.256;2022-08-19T11:58:53;12.00;;;9.77;;
3922;SDS011;1976;51.694;6.256;2022-08-19T12:01:20;10.53;;;9.00;;
3922;SDS011;1976;51.694;6.256;2022-08-19T12:03:48;19.77;;;10.90;;
3922;SDS011;1976;51.694;6.256;2022-08-19T12:06:16;10.70;;;9.60;;
3922;SDS011;1976;51.694;6.256;2022-08-19T12:08:45;18.43;;;9.17;;
3922;SDS011;1976;51.694;6.256;2022-08-19T12:11:12;15.10;;;9.17;;
3922;SDS011;1976;51.694;6.256;2022-08-19T12:13:39;15.37;;;9.63;;
3922;SDS011;1976;51.694;6.256;2022-08-19T12:16:09;14.20;;;9.10;;
3922;SDS011;1976;51.694;6.256;2022-08-19T12:18:38;12.70;;;9.97;;
3922;SDS011;1976;51.694;6.256;2022-08-19T12:21:08;10.80;;;8.50;;
3922;SDS011;1976;51.694;6.256;2022-08-19T12:23:36;11.17;;;7.80;;
3922;SDS011;1976;51.694;6.256;2022-08-19T12:26:02;13.20;;;8.57;;
3922;SDS011;1976;51.694;6.256;2022-08-19T12:28:28;14.30;;;8.50;;
3922;SDS011;1976;51.694;6.256;2022-08-19T12:30:55;13.90;;;8.67;;
3922;SDS011;1976;51.694;6.256;2022-08-19T12:33:22;11.83;;;8.13;;
3922;SDS011;1976;51.694;6.256;2022-08-19T12:35:50;12.90;;;7.97;;
3922;SDS011;1976;51.694;6.256;2022-08-19T12:38:16;11.87;;;9.50;;
3922;SDS011;1976;51.694;6.256;2022-08-19T12:40:46;14.93;;;9.73;;
3922;SDS011;1976;51.694;6.256;2022-08-19T12:43:12;11.50;;;8.90;;
3922;SDS011;1976;51.694;6.256;2022-08-19T12:45:40;22.13;;;10.63;;
3922;SDS011;1976;51.694;6.256;2022-08-19T12:48:07;12.80;;;8.60;;
3922;SDS011;1976;51.694;6.256;2022-08-19T12:50:33;16.30;;;9.07;;
3922;SDS011;1976;51.694;6.256;2022-08-19T12:52:59;18.40;;;9.93;;
3922;SDS011;1976;51.694;6.256;2022-08-19T12:55:25;11.80;;;9.33;;
3922;SDS011;1976;51.694;6.256;2022-08-19T12:57:53;11.60;;;8.50;;
3922;SDS011;1976;51.694;6.256;2022-08-19T13:00:19;11.00;;;9.53;;
3922;SDS011;1976;51.694;6.256;2022-08-19T13:02:47;12.10;;;8.00;;
3922;SDS011;1976;51.694;6.256;2022-08-19T13:05:19;10.60;;;7.40;;
3922;SDS011;1976;51.694;6.256;2022-08-19T13:07:47;12.27;;;8.40;;
3922;SDS011;1976;51.694;6.256;2022-08-19T13:10:15;18.03;;;7.23;;
3922;SDS011;1976;51.694;6.256;2022-08-19T13:12:44;12.20;;;8.80;;
3922;SDS011;1976;51.694;6.256;2022-08-19T13:15:12;9.37;;;7.60;;
3922;SDS011;1976;51.694;6.256;2022-08-19T13:17:40;11.47;;;8.13;;
3922;SDS011;1976;51.694;6.256;2022-08-19T13:20:09;12.63;;;9.10;;
3922;SDS011;1976;51.694;6.256;2022-08-19T13:22:36;11.33;;;8.63;;
3922;SDS011;1976;51.694;6.256;2022-08-19T13:25:03;11.43;;;7.87;;
3922;SDS011;1976;51.694;6.256;2022-08-19T13:27:30;14.00;;;9.40;;
3922;SDS011;1976;51.694;6.256;2022-08-19T13:29:56;14.73;;;10.00;;
3922;SDS011;1976;51.694;6.256;2022-08-19T13:32:40;12.47;;;8.77;;
3922;SDS011;1976;51.694;6.256;2022-08-19T13:35:24;9.67;;;8.67;;
3922;SDS011;1976;51.694;6.256;2022-08-19T13:37:50;12.30;;;9.17;;
3922;SDS011;1976;51.694;6.256;2022-08-19T13:40:17;18.00;;;9.20;;
3922;SDS011;1976;51.694;6.256;2022-08-19T13:42:47;15.20;;;10.13;;
3922;SDS011;1976;51.694;6.256;2022-08-19T13:45:14;10.53;;;8.57;;
3922;SDS011;1976;51.694;6.256;2022-08-19T13:47:44;15.10;;;9.77;;
3922;SDS011;1976;51.694;6.256;2022-08-19T13:50:18;11.80;;;9.10;;
3922;SDS011;1976;51.694;6.256;2022-08-19T13:52:47;17.90;;;9.20;;
3922;SDS011;1976;51.694;6.256;2022-08-19T13:55:13;16.03;;;10.87;;
3922;SDS011;1976;51.694;6.256;2022-08-19T13:57:39;12.33;;;8.23;;
3922;SDS011;1976;51.694;6.256;2022-08-19T14:00:07;7.83;;;7.03;;
3922;SDS011;1976;51.694;6.256;2022-08-19T14:02:39;9.10;;;7.37;;
3922;SDS011;1976;51.694;6.256;2022-08-19T14:05:06;9.10;;;7.03;;
3922;SDS011;1976;51.694;6.256;2022-08-19T14:07:33;10.67;;;8.10;;
3922;SDS011;1976;51.694;6.256;2022-08-19T14:09:59;12.33;;;7.27;;
3922;SDS011;1976;51.694;6.256;2022-08-19T14:12:25;14.70;;;9.77;;
3922;SDS011;1976;51.694;6.256;2022-08-19T14:14:51;13.50;;;9.70;;
3922;SDS011;1976;51.694;6.256;2022-08-19T14:17:16;17.30;;;9.07;;
3922;SDS011;1976;51.694;6.256;2022-08-19T14:19:42;10.57;;;7.97;;
3922;SDS011;1976;51.694;6.256;2022-08-19T14:22:08;10.47;;;7.93;;
3922;SDS011;1976;51.694;6.256;2022-08-19T14:24:34;15.27;;;8.63;;
3922;SDS011;1976;51.694;6.256;2022-08-19T14:27:02;13.50;;;9.00;;
3922;SDS011;1976;51.694;6.256;2022-08-19T14:29:28;13.40;;;7.70;;
3922;SDS011;1976;51.694;6.256;2022-08-19T14:31:54;11.63;;;8.60;;
3922;SDS011;1976;51.694;6.256;2022-08-19T14:34:21;13.77;;;9.00;;
3922;SDS011;1976;51.694;6.256;2022-08-19T14:36:47;11.57;;;8.50;;
3922;SDS011;1976;51.694;6.256;2022-08-19T14:39:13;22.43;;;9.90;;
3922;SDS011;1976;51.694;6.256;2022-08-19T14:41:39;8.70;;;7.87;;
3922;SDS011;1976;51.694;6.256;2022-08-19T14:44:06;10.83;;;8.30;;
3922;SDS011;1976;51.694;6.256;2022-08-19T14:46:32;11.47;;;6.87;;
3922;SDS011;1976;51.694;6.256;2022-08-19T14:48:58;23.23;;;8.47;;
3922;SDS011;1976;51.694;6.256;2022-08-19T14:51:24;8.27;;;7.23;;
3922;SDS011;1976;51.694;6.256;2022-08-19T14:53:51;22.53;;;8.73;;
3922;SDS011;1976;51.694;6.256;2022-08-19T14:56:18;13.60;;;8.50;;
3922;SDS011;1976;51.694;6.256;2022-08-19T14:58:46;9.87;;;8.10;;
3922;SDS011;1976;51.694;6.256;2022-08-19T15:01:13;11.60;;;7.63;;